createdAt,value
2019-03-29T00:00:27.011Z,49.38
2019-03-29T00:01:05.331Z,53.90
2019-03-29T00:01:40.153Z,51.33
2019-03-29T00:02:14.063Z,52.93
2019-03-29T00:02:47.745Z,51.45
2019-03-29T00:03:21.566Z,55.98
2019-03-29T00:03:55.350Z,57.30
2019-03-29T00:04:29.166Z,58.90
2019-03-29T00:05:02.925Z,48.80
2019-03-29T00:05:36.796Z,52.67
2019-03-29T00:06:10.883Z,50.12
2019-03-29T00:06:44.776Z,59.00
2019-03-29T00:07:18.665Z,53.50
2019-03-29T00:07:52.350Z,47.67
2019-03-29T00:08:26.105Z,51.55
2019-03-29T00:08:59.907Z,56.02
2019-03-29T00:09:34.727Z,61.37
2019-03-29T00:10:08.518Z,55.75
2019-03-29T00:10:42.371Z,51.77
2019-03-29T00:11:16.078Z,48.52
2019-03-29T00:11:49.825Z,52.93
2019-03-29T00:12:23.529Z,51.98
2019-03-29T00:12:57.327Z,54.08
2019-03-29T00:13:31.159Z,54.03
2019-03-29T00:14:05.041Z,49.53
2019-03-29T00:14:38.866Z,57.58
2019-03-29T00:15:12.705Z,51.30
2019-03-29T00:15:46.490Z,48.40
2019-03-29T00:16:20.160Z,51.55
2019-03-29T00:16:53.922Z,52.25
2019-03-29T00:17:27.782Z,53.75
2019-03-29T00:18:01.539Z,58.02
2019-03-29T00:18:36.118Z,51.20
2019-03-29T00:19:10.046Z,56.53
2019-03-29T00:19:43.732Z,55.00
2019-03-29T00:20:17.425Z,52.17
2019-03-29T00:20:51.263Z,52.27
2019-03-29T00:21:24.946Z,51.73
2019-03-29T00:21:58.635Z,50.23
2019-03-29T00:22:32.333Z,52.85
2019-03-29T00:23:06.105Z,51.75
2019-03-29T00:23:39.898Z,50.00
2019-03-29T00:24:14.949Z,50.05
2019-03-29T00:24:49.045Z,51.77
2019-03-29T00:25:22.843Z,53.98
2019-03-29T00:25:56.637Z,52.08
2019-03-29T00:26:30.587Z,47.15
2019-03-29T00:27:04.283Z,51.42
2019-03-29T00:27:37.978Z,52.08
2019-03-29T00:28:12.767Z,51.28
2019-03-29T00:28:46.492Z,51.18
2019-03-29T00:29:20.363Z,54.65
2019-03-29T00:29:54.103Z,48.80
2019-03-29T00:30:27.840Z,50.35
2019-03-29T00:31:01.595Z,51.35
2019-03-29T00:31:35.269Z,49.35
2019-03-29T00:32:09.090Z,53.05
2019-03-29T00:32:44.098Z,50.70
2019-03-29T00:33:18.101Z,51.10
2019-03-29T00:33:52.221Z,52.20
2019-03-29T00:34:25.974Z,53.25
2019-03-29T00:34:59.756Z,57.95
2019-03-29T00:35:34.168Z,49.85
2019-03-29T00:36:08.363Z,50.35
2019-03-29T00:36:42.048Z,53.92
2019-03-29T00:37:15.742Z,50.98
2019-03-29T00:37:53.773Z,56.40
2019-03-29T00:38:24.912Z,52.70
2019-03-29T00:38:58.675Z,53.23
2019-03-29T00:39:32.631Z,50.98
2019-03-29T00:40:07.018Z,52.75
2019-03-29T00:40:40.969Z,51.83
2019-03-29T00:41:14.646Z,56.30
2019-03-29T00:41:48.547Z,50.30
2019-03-29T00:42:22.231Z,57.33
2019-03-29T00:42:56.027Z,52.23
2019-03-29T00:43:29.799Z,50.85
2019-03-29T00:44:03.546Z,57.35
2019-03-29T00:44:37.317Z,54.08
2019-03-29T00:45:11.090Z,59.95
2019-03-29T00:45:45.171Z,49.95
2019-03-29T00:46:19.762Z,48.05
2019-03-29T00:46:53.449Z,57.17
2019-03-29T00:47:27.294Z,55.12
2019-03-29T00:48:01.061Z,60.98
2019-03-29T00:48:35.766Z,52.83
2019-03-29T00:49:09.890Z,53.75
2019-03-29T00:49:43.568Z,53.33
2019-03-29T00:50:17.321Z,55.45
2019-03-29T00:50:51.082Z,57.60
2019-03-29T00:51:24.946Z,56.10
2019-03-29T00:51:59.062Z,55.17
2019-03-29T00:52:32.837Z,59.20
2019-03-29T00:53:06.609Z,57.45
2019-03-29T00:53:40.305Z,58.23
2019-03-29T00:54:13.970Z,61.88
2019-03-29T00:54:47.650Z,65.08
2019-03-29T00:55:21.407Z,63.08
2019-03-29T00:55:55.168Z,55.98
2019-03-29T00:56:28.934Z,57.35
2019-03-29T00:57:02.735Z,59.95
2019-03-29T00:57:36.413Z,63.95
2019-03-29T00:58:10.292Z,59.50
2019-03-29T00:58:43.973Z,53.68
2019-03-29T00:59:17.720Z,53.98
2019-03-29T00:59:51.445Z,62.40
2019-03-29T01:00:25.202Z,61.30
2019-03-29T01:00:59.915Z,56.25
2019-03-29T01:01:33.786Z,59.93
2019-03-29T01:02:07.557Z,57.58
2019-03-29T01:02:41.391Z,56.85
2019-03-29T01:03:15.085Z,65.25
2019-03-29T01:03:48.767Z,59.50
2019-03-29T01:04:22.649Z,56.58
2019-03-29T01:04:56.442Z,66.22
2019-03-29T01:05:30.211Z,62.33
2019-03-29T01:06:03.969Z,70.50
2019-03-29T01:06:39.069Z,65.47
2019-03-29T01:07:13.162Z,64.12
2019-03-29T01:07:47.051Z,55.20
2019-03-29T01:08:20.853Z,59.55
2019-03-29T01:08:54.526Z,67.92
2019-03-29T01:09:28.218Z,66.37
2019-03-29T01:10:01.899Z,55.88
2019-03-29T01:10:35.645Z,59.30
2019-03-29T01:11:09.401Z,59.95
2019-03-29T01:11:43.133Z,59.20
2019-03-29T01:12:16.822Z,58.55
2019-03-29T01:12:50.502Z,63.08
2019-03-29T01:13:24.931Z,59.67
2019-03-29T01:13:58.737Z,59.83
2019-03-29T01:14:32.434Z,59.83
2019-03-29T01:15:06.625Z,60.17
2019-03-29T01:15:40.377Z,64.20
2019-03-29T01:16:14.183Z,62.35
2019-03-29T01:16:47.926Z,53.78
2019-03-29T01:17:21.670Z,61.37
2019-03-29T01:17:55.430Z,58.45
2019-03-29T01:18:29.595Z,61.25
2019-03-29T01:19:04.028Z,60.28
2019-03-29T01:19:37.880Z,60.60
2019-03-29T01:20:11.737Z,63.25
2019-03-29T01:20:45.506Z,59.98
2019-03-29T01:21:19.263Z,57.80
2019-03-29T01:21:53.013Z,57.98
2019-03-29T01:22:26.754Z,62.15
2019-03-29T01:23:00.513Z,55.58
2019-03-29T01:23:34.286Z,61.23
2019-03-29T01:24:08.066Z,56.02
2019-03-29T01:24:42.124Z,56.25
2019-03-29T01:25:16.194Z,56.18
2019-03-29T01:25:49.947Z,57.93
2019-03-29T01:26:23.714Z,59.63
2019-03-29T01:26:57.481Z,52.67
2019-03-29T01:27:31.207Z,49.27
2019-03-29T01:28:04.970Z,52.55
2019-03-29T01:28:38.927Z,53.75
2019-03-29T01:29:12.765Z,57.95
2019-03-29T01:29:46.518Z,57.53
2019-03-29T01:30:20.201Z,58.92
2019-03-29T01:30:53.950Z,54.80
2019-03-29T01:31:27.616Z,59.63
2019-03-29T01:32:01.290Z,55.85
2019-03-29T01:32:35.059Z,57.67
2019-03-29T01:33:08.874Z,54.00
2019-03-29T01:33:42.609Z,59.98
2019-03-29T01:34:17.051Z,59.40
2019-03-29T01:34:50.856Z,57.98
2019-03-29T01:35:24.781Z,58.45
2019-03-29T01:35:58.532Z,62.70
2019-03-29T01:36:32.279Z,58.73
2019-03-29T01:37:06.077Z,57.05
2019-03-29T01:37:39.830Z,54.77
2019-03-29T01:38:21.718Z,56.75
2019-03-29T01:38:49.190Z,61.63
2019-03-29T01:39:22.939Z,58.10
2019-03-29T01:39:56.693Z,57.17
2019-03-29T01:40:30.470Z,66.05
2019-03-29T01:41:04.246Z,59.73
2019-03-29T01:41:38.006Z,61.40
2019-03-29T01:42:11.768Z,61.02
2019-03-29T01:42:45.522Z,61.33
2019-03-29T01:43:19.382Z,56.30
2019-03-29T01:43:53.162Z,64.58
2019-03-29T01:44:27.935Z,60.43
2019-03-29T01:45:01.887Z,56.90
2019-03-29T01:45:35.590Z,57.05
2019-03-29T01:46:09.338Z,58.85
2019-03-29T01:46:43.009Z,57.33
2019-03-29T01:47:16.686Z,58.38
2019-03-29T01:47:50.394Z,55.20
2019-03-29T01:48:24.058Z,56.50
2019-03-29T01:48:57.834Z,58.55
2019-03-29T01:49:31.514Z,61.55
2019-03-29T01:50:05.597Z,60.30
2019-03-29T01:50:39.364Z,61.95
2019-03-29T01:51:13.121Z,67.80
2019-03-29T01:51:46.898Z,62.05
2019-03-29T01:52:20.583Z,59.75
2019-03-29T01:52:54.265Z,60.12
2019-03-29T01:53:28.022Z,60.35
2019-03-29T01:54:01.733Z,62.80
2019-03-29T01:54:35.487Z,64.27
2019-03-29T01:55:09.545Z,69.22
2019-03-29T01:55:43.232Z,60.10
2019-03-29T01:56:17.013Z,61.15
2019-03-29T01:56:50.702Z,58.02
2019-03-29T01:57:24.653Z,58.70
2019-03-29T01:57:59.086Z,62.03
2019-03-29T01:58:32.871Z,59.67
2019-03-29T01:59:06.562Z,66.50
2019-03-29T01:59:40.309Z,60.70
2019-03-29T02:00:16.130Z,62.25
2019-03-29T02:00:49.805Z,65.87
2019-03-29T02:01:23.550Z,63.15
2019-03-29T02:01:57.233Z,61.95
2019-03-29T02:02:30.976Z,60.65
2019-03-29T02:03:04.737Z,69.37
2019-03-29T02:03:39.272Z,69.67
2019-03-29T02:04:13.742Z,71.07
2019-03-29T02:04:47.450Z,62.88
2019-03-29T02:05:22.498Z,71.45
2019-03-29T02:05:56.166Z,57.90
2019-03-29T02:06:29.841Z,67.60
2019-03-29T02:07:03.600Z,70.80
2019-03-29T02:07:38.086Z,77.03
2019-03-29T02:08:12.194Z,77.20
2019-03-29T02:08:45.973Z,74.15
2019-03-29T02:09:19.666Z,67.15
2019-03-29T02:09:53.428Z,66.82
2019-03-29T02:10:27.200Z,80.05
2019-03-29T02:11:00.877Z,61.53
2019-03-29T02:11:34.662Z,71.97
2019-03-29T02:12:08.428Z,73.17
2019-03-29T02:12:42.098Z,65.75
2019-03-29T02:13:15.928Z,70.30
2019-03-29T02:13:49.672Z,66.17
2019-03-29T02:14:23.380Z,69.15
2019-03-29T02:14:57.165Z,69.47
2019-03-29T02:15:30.919Z,74.05
2019-03-29T02:16:04.669Z,67.92
2019-03-29T02:16:38.338Z,66.35
2019-03-29T02:17:12.026Z,73.75
2019-03-29T02:17:45.713Z,68.80
2019-03-29T02:18:19.490Z,87.57
2019-03-29T02:18:53.243Z,71.50
2019-03-29T02:19:27.056Z,71.97
2019-03-29T02:20:00.874Z,68.05
2019-03-29T02:20:34.642Z,76.97
2019-03-29T02:21:08.392Z,69.37
2019-03-29T02:21:42.968Z,71.15
2019-03-29T02:22:16.914Z,79.53
2019-03-29T02:22:50.685Z,71.02
2019-03-29T02:23:24.440Z,80.22
2019-03-29T02:23:58.161Z,74.80
2019-03-29T02:24:31.969Z,76.47
2019-03-29T02:25:05.753Z,72.75
2019-03-29T02:25:39.501Z,74.67
2019-03-29T02:26:13.260Z,73.92
2019-03-29T02:26:47.017Z,73.40
2019-03-29T02:27:20.696Z,73.92
2019-03-29T02:27:54.554Z,66.12
2019-03-29T02:28:29.139Z,70.65
2019-03-29T02:29:02.893Z,71.05
2019-03-29T02:29:36.968Z,72.30
2019-03-29T02:30:11.405Z,74.27
2019-03-29T02:30:45.180Z,77.55
2019-03-29T02:31:18.846Z,71.70
2019-03-29T02:31:52.621Z,76.20
2019-03-29T02:32:26.382Z,70.17
2019-03-29T02:33:00.052Z,79.03
2019-03-29T02:33:33.867Z,72.72
2019-03-29T02:34:07.627Z,78.72
2019-03-29T02:34:42.671Z,72.00
2019-03-29T02:35:16.802Z,74.62
2019-03-29T02:35:50.642Z,78.78
2019-03-29T02:36:24.407Z,70.95
2019-03-29T02:36:58.113Z,75.00
2019-03-29T02:37:31.800Z,76.22
2019-03-29T02:38:05.558Z,85.62
2019-03-29T02:38:54.063Z,73.07
2019-03-29T02:39:14.864Z,73.97
2019-03-29T02:39:48.528Z,68.95
2019-03-29T02:40:22.818Z,71.90
2019-03-29T02:40:56.938Z,85.05
2019-03-29T02:41:30.606Z,73.57
2019-03-29T02:42:04.428Z,77.10
2019-03-29T02:42:38.124Z,82.10
2019-03-29T02:43:11.888Z,80.50
2019-03-29T02:43:46.266Z,73.87
2019-03-29T02:44:20.027Z,87.57
2019-03-29T02:44:53.793Z,76.28
2019-03-29T02:45:27.539Z,78.35
2019-03-29T02:46:01.215Z,79.20
2019-03-29T02:46:34.966Z,67.50
2019-03-29T02:47:08.720Z,83.78
2019-03-29T02:47:42.414Z,77.45
2019-03-29T02:48:17.038Z,74.90
2019-03-29T02:48:51.286Z,76.15
2019-03-29T02:49:25.128Z,78.05
2019-03-29T02:49:58.857Z,75.45
2019-03-29T02:50:32.626Z,76.45
2019-03-29T02:51:06.355Z,79.30
2019-03-29T02:51:40.186Z,73.90
2019-03-29T02:52:13.930Z,76.15
2019-03-29T02:52:47.677Z,72.37
2019-03-29T02:53:21.426Z,69.03
2019-03-29T02:53:55.217Z,81.20
2019-03-29T02:54:29.117Z,80.92
2019-03-29T02:55:02.879Z,77.67
2019-03-29T02:55:36.556Z,76.53
2019-03-29T02:56:10.235Z,75.17
2019-03-29T02:56:44.061Z,74.15
2019-03-29T02:57:17.743Z,76.42
2019-03-29T02:57:51.490Z,74.22
2019-03-29T02:58:25.190Z,79.15
2019-03-29T02:58:58.888Z,81.45
2019-03-29T02:59:32.554Z,71.33
2019-03-29T03:00:07.583Z,82.22
2019-03-29T03:00:41.407Z,73.28
2019-03-29T03:01:15.150Z,79.07
2019-03-29T03:01:48.991Z,77.40
2019-03-29T03:02:26.225Z,74.70
2019-03-29T03:02:58.062Z,80.70
2019-03-29T03:03:31.763Z,71.82
2019-03-29T03:04:05.517Z,70.25
2019-03-29T03:04:39.275Z,84.65
2019-03-29T03:05:13.135Z,69.22
2019-03-29T03:05:46.879Z,73.80
2019-03-29T03:06:20.634Z,75.87
2019-03-29T03:06:54.403Z,78.92
2019-03-29T03:07:28.348Z,81.20
2019-03-29T03:08:02.101Z,78.83
2019-03-29T03:08:35.814Z,73.05
2019-03-29T03:09:13.896Z,75.25
2019-03-29T03:09:45.038Z,79.77
2019-03-29T03:10:18.964Z,73.67
2019-03-29T03:10:52.718Z,77.17
2019-03-29T03:11:26.472Z,81.47
2019-03-29T03:12:00.233Z,83.50
2019-03-29T03:12:33.992Z,72.92
2019-03-29T03:13:07.763Z,79.65
2019-03-29T03:13:41.811Z,78.15
2019-03-29T03:14:15.614Z,86.92
2019-03-29T03:14:49.361Z,79.95
2019-03-29T03:15:23.120Z,77.35
2019-03-29T03:15:56.880Z,85.87
2019-03-29T03:16:30.707Z,81.55
2019-03-29T03:17:04.483Z,79.53
2019-03-29T03:17:38.876Z,76.12
2019-03-29T03:18:12.750Z,79.92
2019-03-29T03:18:46.467Z,75.35
2019-03-29T03:19:20.215Z,83.05
2019-03-29T03:19:53.891Z,71.82
2019-03-29T03:20:27.564Z,83.60
2019-03-29T03:21:01.306Z,76.87
2019-03-29T03:21:35.060Z,78.95
2019-03-29T03:22:08.835Z,79.45
2019-03-29T03:22:42.617Z,88.15
2019-03-29T03:23:16.294Z,78.78
2019-03-29T03:23:50.068Z,84.58
2019-03-29T03:24:23.821Z,89.22
2019-03-29T03:24:57.497Z,76.95
2019-03-29T03:25:31.163Z,85.25
2019-03-29T03:26:05.046Z,83.42
2019-03-29T03:26:38.744Z,78.80
2019-03-29T03:27:12.520Z,86.78
2019-03-29T03:27:46.307Z,87.67
2019-03-29T03:28:20.063Z,77.03
2019-03-29T03:28:53.771Z,81.80
2019-03-29T03:29:27.528Z,83.95
2019-03-29T03:30:01.288Z,79.32
2019-03-29T03:30:34.974Z,88.70
2019-03-29T03:31:08.726Z,75.90
2019-03-29T03:31:42.509Z,79.77
2019-03-29T03:32:16.259Z,75.42
2019-03-29T03:32:50.127Z,87.72
2019-03-29T03:33:23.834Z,80.60
2019-03-29T03:33:57.581Z,82.72
2019-03-29T03:34:31.684Z,84.80
2019-03-29T03:35:06.400Z,78.45
2019-03-29T03:35:40.225Z,80.47
2019-03-29T03:36:13.967Z,83.00
2019-03-29T03:36:47.650Z,86.02
2019-03-29T03:37:21.510Z,90.42
2019-03-29T03:37:55.276Z,76.15
2019-03-29T03:38:29.020Z,74.95
2019-03-29T03:39:03.566Z,78.30
2019-03-29T03:39:37.252Z,77.03
2019-03-29T03:40:11.184Z,78.25
2019-03-29T03:40:45.029Z,79.55
2019-03-29T03:41:19.015Z,85.47
2019-03-29T03:41:52.926Z,80.12
2019-03-29T03:42:26.727Z,78.52
2019-03-29T03:43:00.406Z,86.95
2019-03-29T03:43:34.244Z,98.67
2019-03-29T03:44:08.134Z,77.97
2019-03-29T03:44:41.915Z,87.35
2019-03-29T03:45:15.577Z,72.42
2019-03-29T03:45:49.277Z,89.22
2019-03-29T03:46:23.101Z,71.87
2019-03-29T03:46:56.855Z,75.00
2019-03-29T03:47:30.773Z,89.17
2019-03-29T03:48:04.668Z,75.17
2019-03-29T03:48:38.346Z,79.70
2019-03-29T03:49:12.135Z,75.30
2019-03-29T03:49:45.928Z,81.65
2019-03-29T03:50:35.430Z,83.52
2019-03-29T03:51:09.197Z,76.45
2019-03-29T03:51:42.976Z,81.70
2019-03-29T03:52:16.734Z,73.70
2019-03-29T03:52:50.510Z,81.72
2019-03-29T03:53:24.274Z,77.62
2019-03-29T03:53:58.348Z,77.45
2019-03-29T03:54:32.271Z,76.40
2019-03-29T03:55:06.275Z,67.05
2019-03-29T03:55:40.283Z,75.20
2019-03-29T03:56:15.742Z,80.83
2019-03-29T03:56:51.289Z,76.33
2019-03-29T03:57:25.171Z,82.97
2019-03-29T03:58:00.488Z,81.50
2019-03-29T03:58:34.381Z,78.05
2019-03-29T03:59:08.333Z,82.45
2019-03-29T03:59:43.405Z,74.05
2019-03-29T04:00:18.617Z,70.15
2019-03-29T04:00:53.427Z,73.47
2019-03-29T04:01:27.166Z,77.17
2019-03-29T04:02:00.913Z,78.57
2019-03-29T04:02:34.674Z,72.78
2019-03-29T04:03:08.479Z,87.27
2019-03-29T04:03:42.267Z,77.22
2019-03-29T04:04:16.007Z,86.42
2019-03-29T04:04:49.750Z,72.90
2019-03-29T04:05:23.519Z,81.95
2019-03-29T04:05:57.374Z,76.55
2019-03-29T04:06:31.131Z,68.00
2019-03-29T04:07:04.889Z,76.82
2019-03-29T04:07:38.579Z,77.47
2019-03-29T04:08:12.286Z,79.30
2019-03-29T04:08:46.046Z,75.97
2019-03-29T04:09:19.808Z,67.72
2019-03-29T04:09:53.548Z,71.33
2019-03-29T04:10:27.428Z,71.25
2019-03-29T04:11:01.106Z,79.60
2019-03-29T04:11:34.772Z,77.58
2019-03-29T04:12:08.621Z,70.87
2019-03-29T04:12:42.277Z,73.80
2019-03-29T04:13:16.285Z,72.97
2019-03-29T04:13:49.959Z,73.97
2019-03-29T04:14:23.634Z,69.17
2019-03-29T04:14:57.298Z,75.42
2019-03-29T04:15:30.994Z,75.17
2019-03-29T04:16:04.835Z,68.30
2019-03-29T04:16:38.634Z,81.25
2019-03-29T04:17:12.302Z,72.17
2019-03-29T04:17:45.983Z,82.78
2019-03-29T04:18:20.504Z,67.10
2019-03-29T04:18:54.250Z,90.35
2019-03-29T04:19:28.004Z,72.37
2019-03-29T04:20:01.689Z,77.95
2019-03-29T04:20:35.347Z,66.53
2019-03-29T04:21:09.098Z,71.60
2019-03-29T04:21:42.848Z,69.80
2019-03-29T04:22:16.525Z,69.53
2019-03-29T04:22:50.238Z,82.50
2019-03-29T04:23:24.624Z,77.97
2019-03-29T04:23:58.319Z,79.05
2019-03-29T04:24:32.071Z,79.37
2019-03-29T04:25:06.170Z,76.95
2019-03-29T04:25:39.912Z,70.03
2019-03-29T04:26:13.665Z,75.70
2019-03-29T04:26:47.419Z,75.03
2019-03-29T04:27:21.118Z,76.35
2019-03-29T04:27:54.880Z,74.92
2019-03-29T04:28:29.003Z,76.85
2019-03-29T04:29:04.570Z,77.15
2019-03-29T04:29:38.140Z,80.07
2019-03-29T04:30:12.096Z,72.70
2019-03-29T04:30:45.833Z,76.50
2019-03-29T04:31:19.606Z,71.12
2019-03-29T04:31:53.362Z,80.67
2019-03-29T04:32:27.123Z,72.08
2019-03-29T04:33:00.893Z,74.92
2019-03-29T04:33:35.219Z,70.50
2019-03-29T04:34:08.993Z,80.67
2019-03-29T04:34:42.944Z,75.08
2019-03-29T04:35:16.614Z,76.72
2019-03-29T04:35:50.367Z,75.42
2019-03-29T04:36:24.039Z,86.97
2019-03-29T04:36:57.915Z,74.85
2019-03-29T04:37:31.660Z,76.00
2019-03-29T04:38:05.439Z,77.95
2019-03-29T04:38:39.411Z,77.12
2019-03-29T04:39:13.093Z,77.37
2019-03-29T04:39:46.814Z,69.35
2019-03-29T04:40:20.586Z,78.57
2019-03-29T04:40:54.447Z,76.55
2019-03-29T04:41:28.210Z,79.00
2019-03-29T04:42:01.889Z,76.70
2019-03-29T04:42:35.651Z,75.72
2019-03-29T04:43:09.428Z,83.40
2019-03-29T04:43:43.223Z,76.67
2019-03-29T04:44:16.978Z,70.10
2019-03-29T04:44:50.661Z,73.00
2019-03-29T04:45:24.350Z,67.92
2019-03-29T04:45:58.135Z,71.35
2019-03-29T04:46:31.878Z,64.22
2019-03-29T04:47:05.638Z,73.97
2019-03-29T04:47:39.390Z,75.80
2019-03-29T04:48:13.143Z,74.40
2019-03-29T04:48:46.883Z,73.33
2019-03-29T04:49:20.660Z,75.32
2019-03-29T04:49:54.401Z,70.57
2019-03-29T04:50:28.162Z,64.82
2019-03-29T04:51:01.837Z,76.33
2019-03-29T04:51:35.670Z,79.77
2019-03-29T04:52:09.401Z,72.30
2019-03-29T04:52:43.078Z,73.00
2019-03-29T04:53:16.827Z,75.62
2019-03-29T04:53:50.584Z,67.42
2019-03-29T04:54:24.254Z,81.10
2019-03-29T04:54:57.961Z,75.52
2019-03-29T04:55:31.703Z,66.67
2019-03-29T04:56:05.661Z,76.85
2019-03-29T04:56:39.420Z,76.72
2019-03-29T04:57:13.199Z,69.62
2019-03-29T04:57:46.950Z,71.30
2019-03-29T04:58:20.639Z,81.30
2019-03-29T04:58:54.398Z,83.85
2019-03-29T04:59:28.074Z,79.92
2019-03-29T05:00:01.892Z,72.45
2019-03-29T05:00:35.559Z,83.60
2019-03-29T05:01:09.318Z,74.97
2019-03-29T05:01:43.009Z,75.22
2019-03-29T05:02:16.747Z,70.45
2019-03-29T05:02:50.498Z,79.72
2019-03-29T05:03:24.246Z,74.05
2019-03-29T05:03:58.013Z,82.08
2019-03-29T05:04:31.810Z,77.70
2019-03-29T05:05:05.499Z,76.28
2019-03-29T05:05:39.187Z,78.78
2019-03-29T05:06:12.960Z,83.82
2019-03-29T05:06:46.725Z,75.05
2019-03-29T05:07:20.630Z,79.75
2019-03-29T05:07:54.663Z,75.12
2019-03-29T05:08:28.416Z,72.03
2019-03-29T05:09:02.166Z,75.20
2019-03-29T05:09:35.839Z,77.10
2019-03-29T05:10:20.576Z,74.25
2019-03-29T05:10:45.208Z,74.70
2019-03-29T05:11:18.874Z,72.47
2019-03-29T05:11:53.243Z,63.30
2019-03-29T05:12:27.042Z,73.45
2019-03-29T05:13:00.867Z,74.75
2019-03-29T05:13:34.541Z,75.32
2019-03-29T05:14:08.247Z,74.17
2019-03-29T05:14:42.097Z,68.65
2019-03-29T05:15:15.859Z,74.12
2019-03-29T05:15:49.549Z,77.30
2019-03-29T05:16:23.224Z,80.83
2019-03-29T05:16:56.981Z,75.12
2019-03-29T05:17:30.761Z,74.72
2019-03-29T05:18:04.810Z,76.92
2019-03-29T05:18:38.586Z,71.57
2019-03-29T05:19:12.364Z,72.27
2019-03-29T05:19:46.229Z,67.82
2019-03-29T05:20:20.015Z,70.40
2019-03-29T05:20:53.778Z,73.92
2019-03-29T05:21:27.559Z,79.60
2019-03-29T05:22:01.320Z,65.72
2019-03-29T05:22:35.045Z,71.67
2019-03-29T05:23:08.801Z,71.10
2019-03-29T05:23:42.484Z,74.90
2019-03-29T05:24:16.297Z,67.00
2019-03-29T05:24:50.075Z,69.77
2019-03-29T05:25:23.887Z,72.27
2019-03-29T05:25:57.650Z,69.67
2019-03-29T05:26:31.341Z,75.50
2019-03-29T05:27:05.187Z,70.05
2019-03-29T05:27:39.277Z,68.67
2019-03-29T05:28:13.051Z,70.85
2019-03-29T05:28:46.811Z,68.70
2019-03-29T05:29:20.563Z,72.40
2019-03-29T05:29:54.279Z,73.55
2019-03-29T05:30:27.967Z,71.17
2019-03-29T05:31:01.764Z,75.30
2019-03-29T05:31:35.802Z,72.82
2019-03-29T05:32:09.486Z,67.65
2019-03-29T05:32:43.274Z,70.22
2019-03-29T05:33:16.995Z,72.72
2019-03-29T05:33:50.673Z,72.85
2019-03-29T05:34:24.431Z,65.12
2019-03-29T05:34:58.203Z,74.47
2019-03-29T05:35:32.023Z,70.12
2019-03-29T05:36:05.694Z,64.85
2019-03-29T05:36:39.387Z,75.50
2019-03-29T05:37:13.141Z,68.83
2019-03-29T05:37:46.850Z,72.22
2019-03-29T05:38:20.616Z,72.95
2019-03-29T05:38:54.361Z,64.60
2019-03-29T05:39:28.189Z,66.80
2019-03-29T05:40:01.956Z,70.45
2019-03-29T05:40:35.677Z,71.20
2019-03-29T05:41:09.454Z,71.62
2019-03-29T05:41:43.154Z,67.15
2019-03-29T05:42:16.917Z,70.55
2019-03-29T05:42:50.642Z,73.42
2019-03-29T05:43:24.651Z,66.85
2019-03-29T05:43:59.523Z,73.62
2019-03-29T05:44:33.586Z,60.38
2019-03-29T05:45:08.345Z,73.17
2019-03-29T05:45:42.190Z,75.22
2019-03-29T05:46:16.015Z,68.70
2019-03-29T05:46:49.855Z,72.55
2019-03-29T05:47:23.841Z,72.82
2019-03-29T05:47:58.022Z,68.37
2019-03-29T05:48:32.196Z,71.82
2019-03-29T05:49:06.189Z,67.05
2019-03-29T05:49:39.995Z,68.70
2019-03-29T05:50:14.613Z,66.17
2019-03-29T05:50:48.319Z,66.45
2019-03-29T05:51:22.272Z,73.20
2019-03-29T05:51:56.044Z,80.50
2019-03-29T05:52:30.913Z,67.85
2019-03-29T05:53:04.773Z,67.47
2019-03-29T05:53:39.545Z,75.40
2019-03-29T05:54:13.720Z,72.75
2019-03-29T05:54:47.497Z,66.95
2019-03-29T05:55:32.414Z,67.78
2019-03-29T05:55:58.074Z,68.70
2019-03-29T05:56:31.877Z,62.50
2019-03-29T05:57:05.646Z,66.92
2019-03-29T05:57:39.641Z,64.72
2019-03-29T05:58:13.431Z,63.63
2019-03-29T05:58:47.214Z,65.57
2019-03-29T05:59:20.969Z,67.80
2019-03-29T05:59:54.665Z,67.37
2019-03-29T06:00:28.363Z,68.85
2019-03-29T06:01:02.136Z,67.10
2019-03-29T06:01:36.013Z,71.72
2019-03-29T06:02:09.783Z,67.42
2019-03-29T06:02:43.593Z,60.30
2019-03-29T06:03:17.381Z,60.73
2019-03-29T06:03:51.337Z,68.02
2019-03-29T06:04:25.090Z,64.53
2019-03-29T06:04:58.773Z,69.03
2019-03-29T06:05:32.454Z,66.62
2019-03-29T06:06:06.158Z,62.55
2019-03-29T06:06:39.942Z,67.08
2019-03-29T06:07:13.690Z,67.22
2019-03-29T06:07:47.493Z,65.30
2019-03-29T06:08:21.259Z,67.60
2019-03-29T06:08:55.057Z,61.10
2019-03-29T06:09:28.722Z,66.92
2019-03-29T06:10:02.474Z,66.87
2019-03-29T06:10:48.237Z,66.72
2019-03-29T06:11:12.046Z,66.33
2019-03-29T06:11:45.747Z,67.90
2019-03-29T06:12:19.504Z,62.45
2019-03-29T06:12:53.363Z,68.62
2019-03-29T06:13:27.210Z,65.28
2019-03-29T06:14:00.890Z,65.17
2019-03-29T06:14:34.577Z,70.28
2019-03-29T06:15:08.442Z,71.15
2019-03-29T06:15:42.126Z,70.90
2019-03-29T06:16:15.883Z,66.57
2019-03-29T06:16:49.588Z,61.63
2019-03-29T06:17:23.341Z,63.90
2019-03-29T06:17:57.068Z,69.32
2019-03-29T06:18:30.838Z,70.65
2019-03-29T06:19:04.593Z,68.97
2019-03-29T06:19:38.373Z,65.92
2019-03-29T06:20:12.454Z,65.40
2019-03-29T06:20:46.218Z,64.00
2019-03-29T06:21:20.002Z,70.08
2019-03-29T06:21:53.754Z,64.45
2019-03-29T06:22:27.523Z,65.97
2019-03-29T06:23:01.290Z,66.77
2019-03-29T06:23:35.060Z,65.37
2019-03-29T06:24:08.786Z,63.20
2019-03-29T06:24:42.623Z,65.45
2019-03-29T06:25:16.384Z,59.90
2019-03-29T06:25:50.218Z,59.40
2019-03-29T06:26:24.041Z,59.33
2019-03-29T06:26:57.797Z,58.58
2019-03-29T06:27:31.565Z,64.27
2019-03-29T06:28:05.401Z,62.53
2019-03-29T06:28:39.230Z,66.65
2019-03-29T06:29:13.006Z,68.60
2019-03-29T06:29:46.677Z,63.20
2019-03-29T06:30:28.703Z,58.98
2019-03-29T06:31:02.534Z,70.32
2019-03-29T06:31:38.468Z,62.50
2019-03-29T06:32:12.235Z,64.42
2019-03-29T06:32:46.078Z,64.17
2019-03-29T06:33:19.839Z,60.45
2019-03-29T06:33:53.588Z,57.55
2019-03-29T06:34:27.410Z,65.87
2019-03-29T06:35:01.179Z,57.43
2019-03-29T06:35:36.799Z,60.58
2019-03-29T06:36:10.981Z,69.97
2019-03-29T06:36:45.110Z,56.05
2019-03-29T06:37:19.439Z,59.93
2019-03-29T06:37:53.246Z,64.25
2019-03-29T06:38:27.869Z,59.73
2019-03-29T06:39:02.174Z,65.35
2019-03-29T06:39:36.049Z,62.73
2019-03-29T06:40:11.822Z,69.72
2019-03-29T06:40:45.625Z,66.28
2019-03-29T06:41:19.455Z,58.30
2019-03-29T06:41:53.203Z,58.73
2019-03-29T06:42:26.878Z,59.08
2019-03-29T06:43:00.881Z,52.88
2019-03-29T06:43:34.570Z,64.20
2019-03-29T06:44:08.253Z,58.28
2019-03-29T06:44:44.306Z,57.83
2019-03-29T06:45:17.545Z,64.55
2019-03-29T06:45:51.306Z,60.38
2019-03-29T06:46:25.057Z,57.38
2019-03-29T06:46:58.889Z,59.80
2019-03-29T06:47:32.555Z,64.62
2019-03-29T06:48:06.342Z,57.10
2019-03-29T06:48:40.177Z,59.10
2019-03-29T06:49:13.957Z,54.58
2019-03-29T06:49:47.707Z,59.77
2019-03-29T06:50:21.520Z,56.65
2019-03-29T06:50:55.372Z,56.45
2019-03-29T06:51:29.143Z,56.08
2019-03-29T06:52:02.908Z,62.33
2019-03-29T06:52:36.586Z,56.25
2019-03-29T06:53:10.301Z,54.67
2019-03-29T06:53:45.001Z,55.90
2019-03-29T06:54:18.764Z,59.30
2019-03-29T06:54:52.554Z,53.83
2019-03-29T06:55:26.314Z,55.98
2019-03-29T06:55:59.997Z,53.92
2019-03-29T06:56:33.754Z,63.23
2019-03-29T06:57:07.581Z,54.38
2019-03-29T06:57:41.338Z,59.90
2019-03-29T06:58:15.095Z,57.75
2019-03-29T06:58:48.799Z,58.25
2019-03-29T06:59:22.618Z,60.45
2019-03-29T06:59:56.373Z,57.08
2019-03-29T07:00:30.147Z,54.90
2019-03-29T07:01:03.915Z,58.55
2019-03-29T07:01:37.693Z,64.25
2019-03-29T07:02:11.454Z,59.00
2019-03-29T07:02:45.895Z,56.90
2019-03-29T07:03:19.658Z,55.03
2019-03-29T07:03:53.455Z,57.65
2019-03-29T07:04:27.128Z,63.30
2019-03-29T07:05:00.830Z,58.58
2019-03-29T07:05:34.570Z,60.12
2019-03-29T07:06:08.360Z,56.70
2019-03-29T07:06:42.031Z,55.80
2019-03-29T07:07:15.792Z,65.37
2019-03-29T07:07:49.549Z,58.33
2019-03-29T07:08:23.398Z,55.55
2019-03-29T07:08:57.285Z,63.87
2019-03-29T07:09:30.975Z,55.43
2019-03-29T07:10:05.077Z,56.55
2019-03-29T07:10:38.919Z,64.25
2019-03-29T07:11:17.794Z,56.23
2019-03-29T07:11:48.282Z,52.25
2019-03-29T07:12:22.041Z,57.30
2019-03-29T07:12:56.649Z,53.28
2019-03-29T07:13:30.481Z,60.03
2019-03-29T07:14:04.986Z,54.48
2019-03-29T07:14:38.749Z,56.00
2019-03-29T07:15:12.519Z,56.48
2019-03-29T07:15:46.308Z,53.58
2019-03-29T07:16:20.018Z,55.28
2019-03-29T07:16:53.886Z,51.88